createdAt,value
2023-02-13T00:00:12.636Z,84.18
2023-02-13T00:01:09.206Z,84.02
2023-02-13T00:02:05.850Z,84.01
2023-02-13T00:03:02.943Z,83.38
2023-02-13T00:04:00.434Z,83.96
2023-02-13T00:04:57.059Z,84.23
2023-02-13T00:05:53.656Z,83.63
2023-02-13T00:06:50.232Z,84.26
2023-02-13T00:07:47.011Z,83.28
2023-02-13T00:08:43.653Z,83.04
2023-02-13T00:09:40.915Z,83.39
2023-02-13T00:10:37.713Z,83.15
2023-02-13T00:11:34.262Z,83.16
2023-02-13T00:12:30.997Z,83.58
2023-02-13T00:13:27.777Z,83.58
2023-02-13T00:14:24.366Z,83.35
2023-02-13T00:15:21.005Z,83.50
2023-02-13T00:16:17.739Z,83.27
2023-02-13T00:17:14.334Z,83.32
2023-02-13T00:18:11.286Z,82.78
2023-02-13T00:19:07.925Z,83.21
2023-02-13T00:20:05.686Z,83.77
2023-02-13T00:21:08.526Z,84.22
2023-02-13T00:22:05.115Z,84.79
2023-02-13T00:23:02.076Z,84.51
2023-02-13T00:23:58.676Z,83.77
2023-02-13T00:24:55.256Z,84.14
2023-02-13T00:25:51.862Z,83.85
2023-02-13T00:26:48.431Z,83.69
2023-02-13T00:27:45.023Z,83.09
2023-02-13T00:28:41.734Z,83.09
2023-02-13T00:29:38.558Z,83.29
2023-02-13T00:30:35.145Z,82.96
2023-02-13T00:31:31.802Z,83.42
2023-02-13T00:32:28.539Z,83.85
2023-02-13T00:33:25.134Z,84.23
2023-02-13T00:34:21.706Z,83.64
2023-02-13T00:35:18.430Z,83.21
2023-02-13T00:36:20.843Z,83.22
2023-02-13T00:37:17.419Z,83.18
2023-02-13T00:38:13.989Z,82.72
2023-02-13T00:39:12.197Z,82.98
2023-02-13T00:40:09.325Z,83.36
2023-02-13T00:41:06.043Z,83.35
2023-02-13T00:42:02.629Z,83.42
2023-02-13T00:42:59.248Z,83.45
2023-02-13T00:43:55.853Z,83.94
2023-02-13T00:44:54.020Z,83.88
2023-02-13T00:45:50.583Z,83.86
2023-02-13T00:46:47.244Z,83.31
2023-02-13T00:47:43.925Z,82.76
2023-02-13T00:48:40.942Z,83.24
2023-02-13T00:49:37.533Z,83.92
2023-02-13T00:50:34.117Z,83.86
2023-02-13T00:51:31.016Z,83.68
2023-02-13T00:52:27.584Z,83.94
2023-02-13T00:53:25.979Z,83.89
2023-02-13T00:54:22.586Z,83.59
2023-02-13T00:55:19.224Z,84.19
2023-02-13T00:56:16.802Z,83.67
2023-02-13T00:57:13.571Z,83.29
2023-02-13T00:58:10.373Z,83.36
2023-02-13T00:59:07.045Z,83.16
2023-02-13T01:00:03.914Z,82.83
2023-02-13T01:01:00.623Z,83.09
2023-02-13T01:01:57.382Z,83.46
2023-02-13T01:02:54.106Z,83.20
2023-02-13T01:03:50.745Z,83.20
2023-02-13T01:04:47.357Z,83.40
2023-02-13T01:05:44.984Z,83.19
2023-02-13T01:06:41.729Z,83.23
2023-02-13T01:07:38.321Z,83.66
2023-02-13T01:08:35.426Z,83.29
2023-02-13T01:09:32.114Z,83.79
2023-02-13T01:10:28.768Z,83.62
2023-02-13T01:11:25.505Z,83.60
2023-02-13T01:12:22.207Z,83.72
2023-02-13T01:13:18.832Z,83.75
2023-02-13T01:14:16.876Z,83.93
2023-02-13T01:15:13.476Z,83.82
2023-02-13T01:16:10.211Z,83.89
2023-02-13T01:17:06.840Z,83.71
2023-02-13T01:18:04.264Z,83.78
2023-02-13T01:19:00.848Z,83.43
2023-02-13T01:19:57.454Z,83.23
2023-02-13T01:21:02.677Z,82.73
2023-02-13T01:21:59.249Z,81.98
2023-02-13T01:22:57.480Z,81.50
2023-02-13T01:23:54.119Z,81.01
2023-02-13T01:24:50.844Z,81.57
2023-02-13T01:25:47.418Z,80.97
2023-02-13T01:26:44.246Z,81.68
2023-02-13T01:27:40.952Z,81.71
2023-02-13T01:28:37.665Z,81.76
2023-02-13T01:29:34.665Z,81.31
2023-02-13T01:30:31.279Z,80.55
2023-02-13T01:31:28.018Z,80.76
2023-02-13T01:32:24.721Z,80.72
2023-02-13T01:33:22.669Z,81.14
2023-02-13T01:34:19.281Z,82.79
2023-02-13T01:35:16.604Z,83.11
2023-02-13T01:36:16.830Z,82.91
2023-02-13T01:37:14.100Z,83.12
2023-02-13T01:38:10.756Z,82.74
2023-02-13T01:39:07.526Z,82.68
2023-02-13T01:40:04.378Z,82.65
2023-02-13T01:41:01.014Z,83.12
2023-02-13T01:41:57.651Z,82.69
2023-02-13T01:42:54.262Z,83.16
2023-02-13T01:43:53.146Z,83.31
2023-02-13T01:44:55.275Z,83.28
2023-02-13T01:45:56.461Z,82.78
2023-02-13T01:46:53.227Z,82.72
2023-02-13T01:47:53.095Z,81.93
2023-02-13T01:48:51.385Z,82.34
2023-02-13T01:49:49.539Z,82.15
2023-02-13T01:50:55.528Z,81.99
2023-02-13T01:51:56.208Z,82.82
2023-02-13T01:52:59.917Z,83.22
2023-02-13T01:54:02.835Z,83.25
2023-02-13T01:54:59.490Z,83.77
2023-02-13T01:56:07.202Z,83.24
2023-02-13T01:57:09.517Z,84.00
2023-02-13T01:58:09.874Z,83.46
2023-02-13T01:59:13.361Z,83.84
2023-02-13T02:00:16.965Z,82.96
2023-02-13T02:01:13.876Z,83.08
2023-02-13T02:02:10.918Z,82.78
2023-02-13T02:03:14.130Z,83.02
2023-02-13T02:04:19.230Z,83.45
2023-02-13T02:05:18.405Z,83.68
2023-02-13T02:06:24.236Z,83.43
2023-02-13T02:07:24.950Z,83.63
2023-02-13T02:08:21.859Z,84.08
2023-02-13T02:09:25.972Z,84.57
2023-02-13T02:10:22.962Z,84.69
2023-02-13T02:11:30.294Z,84.28
2023-02-13T02:12:34.072Z,84.33
2023-02-13T02:13:30.680Z,84.62
2023-02-13T02:14:27.891Z,84.78
2023-02-13T02:15:25.168Z,84.43
2023-02-13T02:16:21.846Z,84.66
2023-02-13T02:17:21.678Z,84.08
2023-02-13T02:18:23.963Z,83.74
2023-02-13T02:19:56.482Z,84.48
2023-02-13T02:21:10.916Z,84.54
2023-02-13T02:22:39.603Z,84.97
2023-02-13T02:24:08.159Z,84.15
2023-02-13T02:25:16.799Z,84.60
2023-02-13T02:26:35.345Z,84.95
2023-02-13T02:27:51.816Z,85.01
2023-02-13T02:29:09.523Z,85.01
2023-02-13T02:30:38.772Z,85.28
2023-02-13T02:32:03.477Z,85.29
2023-02-13T02:33:27.896Z,85.57
2023-02-13T02:34:46.599Z,85.25
2023-02-13T02:35:46.237Z,85.51
2023-02-13T02:37:17.356Z,85.45
2023-02-13T02:38:45.704Z,86.02
2023-02-13T02:39:57.569Z,86.12
2023-02-13T02:41:04.993Z,85.55
2023-02-13T02:42:23.336Z,85.29
2023-02-13T02:43:47.985Z,85.47
2023-02-13T02:44:53.674Z,85.27
2023-02-13T02:46:02.222Z,85.71
2023-02-13T02:47:43.097Z,85.98
2023-02-13T02:49:05.670Z,85.85
2023-02-13T02:50:24.999Z,85.25
2023-02-13T02:51:32.889Z,84.94
2023-02-13T02:52:46.449Z,84.76
2023-02-13T02:54:26.518Z,84.80
2023-02-13T02:55:50.402Z,84.77
2023-02-13T02:56:49.020Z,84.79
2023-02-13T02:58:21.936Z,85.09
2023-02-13T02:59:40.568Z,84.29
2023-02-13T03:01:01.608Z,84.46
2023-02-13T03:02:17.745Z,84.86
2023-02-13T03:03:40.234Z,85.42
2023-02-13T03:05:04.593Z,85.99
2023-02-13T03:06:14.090Z,85.88
2023-02-13T03:07:14.705Z,85.36
2023-02-13T03:08:12.112Z,85.37
2023-02-13T03:09:33.368Z,86.23
2023-02-13T03:10:53.874Z,85.91
2023-02-13T03:12:12.955Z,85.88
2023-02-13T03:13:33.397Z,85.93
2023-02-13T03:14:30.050Z,86.46
2023-02-13T03:15:27.424Z,86.36
2023-02-13T03:16:43.880Z,85.91
2023-02-13T03:17:59.595Z,86.22
2023-02-13T03:19:16.689Z,86.00
2023-02-13T03:20:41.090Z,85.69
2023-02-13T03:22:13.163Z,85.36
2023-02-13T03:23:17.376Z,85.77
2023-02-13T03:24:25.938Z,86.28
2023-02-13T03:25:38.826Z,86.66
2023-02-13T03:26:50.381Z,86.41
2023-02-13T03:28:12.202Z,86.51
2023-02-13T03:29:36.965Z,87.37
2023-02-13T03:30:51.815Z,87.38
2023-02-13T03:32:25.855Z,87.45
2023-02-13T03:33:42.815Z,87.26
2023-02-13T03:35:05.749Z,87.65
2023-02-13T03:36:31.761Z,87.55
2023-02-13T03:37:54.595Z,87.62
2023-02-13T03:38:56.928Z,87.32
2023-02-13T03:40:05.160Z,87.66
2023-02-13T03:41:19.614Z,87.18
2023-02-13T03:42:27.314Z,87.29
2023-02-13T03:43:27.773Z,86.63
2023-02-13T03:44:40.986Z,86.27
2023-02-13T03:45:53.829Z,85.59
2023-02-13T03:46:53.549Z,85.17
2023-02-13T03:47:55.194Z,84.51
2023-02-13T03:49:10.600Z,84.96
2023-02-13T03:50:09.930Z,85.88
2023-02-13T03:51:10.014Z,86.72
2023-02-13T03:52:19.159Z,87.27
2023-02-13T03:53:16.520Z,87.09
2023-02-13T03:54:21.986Z,87.04
2023-02-13T03:55:48.831Z,87.65
2023-02-13T03:57:09.298Z,87.76
2023-02-13T03:58:29.852Z,88.35
2023-02-13T03:59:33.894Z,89.19
2023-02-13T04:00:40.018Z,88.84
2023-02-13T04:01:38.335Z,89.36
2023-02-13T04:02:46.967Z,89.25
2023-02-13T04:03:52.624Z,89.05
2023-02-13T04:04:57.931Z,88.46
2023-02-13T04:06:08.834Z,88.69
2023-02-13T04:07:10.760Z,88.88
2023-02-13T04:08:07.500Z,89.18
2023-02-13T04:09:04.285Z,89.28
2023-02-13T04:10:10.394Z,89.46
2023-02-13T04:11:25.483Z,89.62
2023-02-13T04:12:43.393Z,90.03
2023-02-13T04:13:47.652Z,89.98
2023-02-13T04:14:53.261Z,90.13
2023-02-13T04:15:58.458Z,90.11
2023-02-13T04:17:05.807Z,90.52
2023-02-13T04:18:10.869Z,90.64
2023-02-13T04:19:08.838Z,91.10
2023-02-13T04:20:07.171Z,90.50
2023-02-13T04:21:05.450Z,90.49
2023-02-13T04:22:03.145Z,90.48
2023-02-13T04:23:08.594Z,89.78
2023-02-13T04:24:05.584Z,89.75
2023-02-13T04:25:02.202Z,89.75
2023-02-13T04:26:02.480Z,89.23
2023-02-13T04:26:59.466Z,89.38
2023-02-13T04:27:56.065Z,89.48
2023-02-13T04:28:52.684Z,89.71
2023-02-13T04:29:49.244Z,89.81
2023-02-13T04:30:45.910Z,89.83
2023-02-13T04:31:42.707Z,89.80
2023-02-13T04:32:39.378Z,90.06
2023-02-13T04:33:36.038Z,89.65
2023-02-13T04:34:32.718Z,89.59
2023-02-13T04:35:29.343Z,89.86
2023-02-13T04:36:26.138Z,90.06
2023-02-13T04:37:22.762Z,89.94
2023-02-13T04:38:19.364Z,90.19
2023-02-13T04:39:16.043Z,90.03
2023-02-13T04:40:12.915Z,89.98
2023-02-13T04:41:09.554Z,89.87
2023-02-13T04:42:06.192Z,90.63
2023-02-13T04:43:02.872Z,90.20
2023-02-13T04:43:59.472Z,90.95
2023-02-13T04:44:56.105Z,90.67
2023-02-13T04:45:52.751Z,91.04
2023-02-13T04:46:49.429Z,90.72
2023-02-13T04:47:53.830Z,90.55
2023-02-13T04:48:50.446Z,91.28
2023-02-13T04:49:47.109Z,91.12
2023-02-13T04:50:44.116Z,91.33
2023-02-13T04:51:41.353Z,91.18
2023-02-13T04:52:38.034Z,90.60
2023-02-13T04:53:34.586Z,90.95
2023-02-13T04:54:31.186Z,91.20
2023-02-13T04:55:28.792Z,91.22
2023-02-13T04:56:25.426Z,91.13
2023-02-13T04:57:22.063Z,91.04
2023-02-13T04:58:18.713Z,91.61
2023-02-13T04:59:15.389Z,91.20
2023-02-13T05:00:12.610Z,90.44
2023-02-13T05:01:15.965Z,90.00
2023-02-13T05:02:12.691Z,90.04
2023-02-13T05:03:11.614Z,90.31
2023-02-13T05:04:08.312Z,90.74
2023-02-13T05:05:05.193Z,91.12
2023-02-13T05:06:01.770Z,91.26
2023-02-13T05:06:58.483Z,91.00
2023-02-13T05:07:55.073Z,91.04
2023-02-13T05:08:51.647Z,91.76
2023-02-13T05:09:48.377Z,91.63
2023-02-13T05:10:44.972Z,91.58
2023-02-13T05:11:41.648Z,91.75
2023-02-13T05:12:38.633Z,91.68
2023-02-13T05:13:35.372Z,91.75
2023-02-13T05:14:31.924Z,92.07
2023-02-13T05:15:29.111Z,92.27
2023-02-13T05:16:25.864Z,92.12
2023-02-13T05:17:22.512Z,92.30
2023-02-13T05:18:20.082Z,92.58
2023-02-13T05:19:17.283Z,92.65
2023-02-13T05:20:14.490Z,92.57
2023-02-13T05:21:29.748Z,92.67
2023-02-13T05:22:45.256Z,92.96
2023-02-13T05:23:41.932Z,92.79
2023-02-13T05:24:38.597Z,92.93
2023-02-13T05:25:37.542Z,92.36
2023-02-13T05:26:34.127Z,91.35
2023-02-13T05:27:30.740Z,90.80
2023-02-13T05:28:45.890Z,90.64
2023-02-13T05:29:42.456Z,90.34
2023-02-13T05:30:40.211Z,91.02
2023-02-13T05:31:36.959Z,91.51
2023-02-13T05:32:33.603Z,91.59
2023-02-13T05:33:30.190Z,91.67
2023-02-13T05:34:28.180Z,91.82
2023-02-13T05:35:25.713Z,91.71
2023-02-13T05:36:22.373Z,91.97
2023-02-13T05:37:18.915Z,92.01
2023-02-13T05:38:15.522Z,92.56
2023-02-13T05:39:12.992Z,92.69
2023-02-13T05:40:11.960Z,92.70
2023-02-13T05:41:08.602Z,92.93
2023-02-13T05:42:05.377Z,93.05
2023-02-13T05:43:01.916Z,93.07
2023-02-13T05:43:58.579Z,93.01
2023-02-13T05:44:55.153Z,93.00
2023-02-13T05:45:52.357Z,92.73
2023-02-13T05:46:49.448Z,93.02
2023-02-13T05:47:46.048Z,93.09
2023-02-13T05:48:42.700Z,93.26
2023-02-13T05:49:39.379Z,93.59
2023-02-13T05:50:36.076Z,93.57
2023-02-13T05:51:33.125Z,93.26
2023-02-13T05:52:29.685Z,93.09
2023-02-13T05:53:26.650Z,92.76
2023-02-13T05:54:23.302Z,93.06
2023-02-13T05:55:19.854Z,93.29
2023-02-13T05:56:16.649Z,93.33
2023-02-13T05:57:13.191Z,93.34
2023-02-13T05:58:09.771Z,92.81
2023-02-13T05:59:06.832Z,92.98
2023-02-13T06:00:04.766Z,92.77
2023-02-13T06:01:01.679Z,92.89
2023-02-13T06:01:58.298Z,93.05
2023-02-13T06:02:54.906Z,92.98
2023-02-13T06:03:52.030Z,92.91
2023-02-13T06:04:48.620Z,92.55
2023-02-13T06:05:45.273Z,93.15
2023-02-13T06:06:41.949Z,92.28
2023-02-13T06:07:38.535Z,92.66
2023-02-13T06:08:35.241Z,92.83
2023-02-13T06:09:31.790Z,92.89
2023-02-13T06:10:28.352Z,92.56
2023-02-13T06:11:24.932Z,92.49
2023-02-13T06:12:21.515Z,92.76
2023-02-13T06:13:18.711Z,92.62
2023-02-13T06:14:16.839Z,92.51
2023-02-13T06:15:14.048Z,92.52
2023-02-13T06:16:11.944Z,92.82
2023-02-13T06:17:08.843Z,92.81
2023-02-13T06:18:05.584Z,92.24
2023-02-13T06:19:02.597Z,92.41
2023-02-13T06:19:59.129Z,91.54
2023-02-13T06:20:56.042Z,91.60
2023-02-13T06:21:52.862Z,91.30
2023-02-13T06:22:51.187Z,91.00
2023-02-13T06:23:47.740Z,90.86
2023-02-13T06:24:44.350Z,91.15
2023-02-13T06:25:41.449Z,91.13
2023-02-13T06:26:38.024Z,90.97
2023-02-13T06:27:34.628Z,91.29
2023-02-13T06:28:31.531Z,91.63
2023-02-13T06:29:28.208Z,91.59
2023-02-13T06:30:25.019Z,91.61
2023-02-13T06:31:22.164Z,91.52
2023-02-13T06:32:18.848Z,91.19
2023-02-13T06:33:15.516Z,91.30
2023-02-13T06:34:12.113Z,90.78
2023-02-13T06:35:09.175Z,90.89
2023-02-13T06:36:06.191Z,90.42
2023-02-13T06:37:02.943Z,89.54
2023-02-13T06:37:59.560Z,89.15
2023-02-13T06:38:56.502Z,88.83
2023-02-13T06:39:53.096Z,88.28
2023-02-13T06:40:50.173Z,87.88
2023-02-13T06:41:46.726Z,88.13
2023-02-13T06:42:44.260Z,87.98
2023-02-13T06:43:40.993Z,88.66
2023-02-13T06:44:37.538Z,88.07
2023-02-13T06:45:34.134Z,88.20
2023-02-13T06:46:30.725Z,88.33
2023-02-13T06:47:27.507Z,88.49
2023-02-13T06:48:24.122Z,88.34
2023-02-13T06:49:20.757Z,88.24
2023-02-13T06:50:18.170Z,88.15
2023-02-13T06:51:14.769Z,87.24
2023-02-13T06:52:11.427Z,86.45
2023-02-13T06:53:08.358Z,85.56
2023-02-13T06:54:05.060Z,85.65
2023-02-13T06:55:01.787Z,85.45
2023-02-13T06:55:58.445Z,84.69
2023-02-13T06:56:55.065Z,84.88
2023-02-13T06:57:51.617Z,85.12
2023-02-13T06:58:48.176Z,83.98
2023-02-13T06:59:44.975Z,83.22
2023-02-13T07:00:41.698Z,82.90
2023-02-13T07:01:38.262Z,83.65
2023-02-13T07:02:34.897Z,83.90
2023-02-13T07:03:31.550Z,83.50
2023-02-13T07:04:28.595Z,83.47
2023-02-13T07:05:25.177Z,83.10
2023-02-13T07:06:22.102Z,83.12
2023-02-13T07:07:18.686Z,82.68
2023-02-13T07:08:15.268Z,82.24
2023-02-13T07:09:13.562Z,83.54
2023-02-13T07:10:13.074Z,84.27
2023-02-13T07:11:16.401Z,84.60
2023-02-13T07:12:12.965Z,84.46
2023-02-13T07:13:10.498Z,83.93
2023-02-13T07:14:07.890Z,83.06
2023-02-13T07:15:05.289Z,81.51
2023-02-13T07:16:02.171Z,80.98
2023-02-13T07:16:59.294Z,81.51
2023-02-13T07:17:57.678Z,81.16
2023-02-13T07:18:54.389Z,80.03
2023-02-13T07:19:50.942Z,79.82
2023-02-13T07:20:47.579Z,79.98
2023-02-13T07:21:44.210Z,81.04
2023-02-13T07:22:40.805Z,80.97
2023-02-13T07:23:37.464Z,81.54
2023-02-13T07:24:35.485Z,81.97
2023-02-13T07:25:32.609Z,82.62
2023-02-13T07:26:29.708Z,82.21
2023-02-13T07:27:29.283Z,82.95
2023-02-13T07:28:26.508Z,83.19
2023-02-13T07:29:23.097Z,83.23
2023-02-13T07:30:19.740Z,83.12
2023-02-13T07:31:16.644Z,82.20
2023-02-13T07:32:13.474Z,81.99
2023-02-13T07:33:11.706Z,81.64
2023-02-13T07:34:09.965Z,82.12
2023-02-13T07:35:06.609Z,81.26
2023-02-13T07:36:04.460Z,81.05
2023-02-13T07:37:01.030Z,80.37
2023-02-13T07:37:58.025Z,79.29
2023-02-13T07:38:54.718Z,78.73
2023-02-13T07:39:51.415Z,79.32
2023-02-13T07:40:48.071Z,79.02
2023-02-13T07:41:44.854Z,79.32
2023-02-13T07:42:41.420Z,78.73
2023-02-13T07:43:38.097Z,78.87
2023-02-13T07:44:34.737Z,79.42
2023-02-13T07:45:31.497Z,78.30
2023-02-13T07:46:28.189Z,78.11
2023-02-13T07:47:24.786Z,77.93
2023-02-13T07:48:23.291Z,77.46
2023-02-13T07:49:19.942Z,77.07
2023-02-13T07:50:16.624Z,77.51
2023-02-13T07:51:13.253Z,78.54
2023-02-13T07:52:09.995Z,78.26
2023-02-13T07:53:06.644Z,77.42
2023-02-13T07:54:03.557Z,77.03
2023-02-13T07:55:00.208Z,77.02
2023-02-13T07:55:57.180Z,77.64
2023-02-13T07:56:53.994Z,77.38
2023-02-13T07:57:51.373Z,77.82
2023-02-13T07:58:47.993Z,77.13
2023-02-13T07:59:45.354Z,77.66
2023-02-13T08:00:42.024Z,77.32
2023-02-13T08:01:38.758Z,74.99
2023-02-13T08:02:35.407Z,73.35
2023-02-13T08:03:32.034Z,73.21
2023-02-13T08:04:29.168Z,75.18
2023-02-13T08:05:25.811Z,76.25
2023-02-13T08:06:22.835Z,75.59
2023-02-13T08:07:19.894Z,74.32
2023-02-13T08:08:17.302Z,75.13
2023-02-13T08:09:39.739Z,76.12
2023-02-13T08:10:55.906Z,74.36
2023-02-13T08:11:53.613Z,74.34
2023-02-13T08:12:51.521Z,76.01
2023-02-13T08:13:48.131Z,76.72
2023-02-13T08:14:44.855Z,77.23
2023-02-13T08:15:41.687Z,77.02
2023-02-13T08:16:38.380Z,77.23
2023-02-13T08:17:34.968Z,77.41
2023-02-13T08:18:31.580Z,76.70
2023-02-13T08:19:28.385Z,76.45
2023-02-13T08:20:25.089Z,76.73
2023-02-13T08:21:21.737Z,76.70
2023-02-13T08:22:18.310Z,75.81
2023-02-13T08:23:14.953Z,73.95
2023-02-13T08:24:12.439Z,73.62
2023-02-13T08:25:09.030Z,72.75
2023-02-13T08:26:05.713Z,73.45
2023-02-13T08:27:02.315Z,74.19
2023-02-13T08:28:00.201Z,74.24
2023-02-13T08:28:56.753Z,72.46
2023-02-13T08:29:53.329Z,71.98
2023-02-13T08:30:49.941Z,72.06
2023-02-13T08:31:46.688Z,72.24
2023-02-13T08:32:53.758Z,72.81
2023-02-13T08:33:51.073Z,73.24
2023-02-13T08:34:47.720Z,71.83
2023-02-13T08:35:44.324Z,71.83
2023-02-13T08:36:40.934Z,70.87
2023-02-13T08:37:37.518Z,69.55
2023-02-13T08:38:34.652Z,70.92
2023-02-13T08:39:31.300Z,71.20
2023-02-13T08:40:27.906Z,71.55
2023-02-13T08:41:24.750Z,71.58
2023-02-13T08:42:21.324Z,71.43
2023-02-13T08:43:17.853Z,69.58
2023-02-13T08:44:14.545Z,68.55
2023-02-13T08:45:11.781Z,69.49
2023-02-13T08:46:08.581Z,68.75
2023-02-13T08:47:05.823Z,70.50
2023-02-13T08:48:04.169Z,69.23
2023-02-13T08:49:00.886Z,70.72
2023-02-13T08:49:57.565Z,69.00
2023-02-13T08:50:54.227Z,68.05
2023-02-13T08:51:51.011Z,68.03
2023-02-13T08:52:47.608Z,67.83
2023-02-13T08:53:44.285Z,69.02
2023-02-13T08:54:40.870Z,69.40
2023-02-13T08:55:37.472Z,68.87
2023-02-13T08:56:35.108Z,68.84
2023-02-13T08:57:31.767Z,69.33
2023-02-13T08:58:28.363Z,67.78
2023-02-13T08:59:24.990Z,66.42
2023-02-13T09:00:21.965Z,65.17
2023-02-13T09:01:18.876Z,64.51
2023-02-13T09:02:15.546Z,63.86
2023-02-13T09:03:12.394Z,65.46
2023-02-13T09:04:09.127Z,64.01
2023-02-13T09:05:06.110Z,64.21
2023-02-13T09:06:03.739Z,64.81
2023-02-13T09:07:00.335Z,64.91
2023-02-13T09:07:59.278Z,64.39
2023-02-13T09:08:55.909Z,64.40
2023-02-13T09:09:52.557Z,66.45
2023-02-13T09:10:56.584Z,65.50
2023-02-13T09:11:56.241Z,65.56
2023-02-13T09:12:53.658Z,66.92
2023-02-13T09:13:53.544Z,66.56
2023-02-13T09:14:50.372Z,66.79
2023-02-13T09:15:47.008Z,67.70
2023-02-13T09:16:43.675Z,67.21
2023-02-13T09:17:40.269Z,66.82
2023-02-13T09:18:37.030Z,68.95
2023-02-13T09:19:33.743Z,69.87
2023-02-13T09:20:30.432Z,70.55
2023-02-13T09:21:27.097Z,70.33
2023-02-13T09:22:23.730Z,68.12
2023-02-13T09:23:20.311Z,68.59
2023-02-13T09:24:16.880Z,69.80
2023-02-13T09:25:13.491Z,70.30
2023-02-13T09:26:14.801Z,69.69
2023-02-13T09:27:11.441Z,69.84
2023-02-13T09:28:08.102Z,68.97
2023-02-13T09:29:04.782Z,69.22
2023-02-13T09:30:01.978Z,68.73
2023-02-13T09:30:59.655Z,70.24
2023-02-13T09:31:56.443Z,71.26
2023-02-13T09:32:54.352Z,71.19
2023-02-13T09:33:51.067Z,70.30
2023-02-13T09:34:47.611Z,71.80
2023-02-13T09:35:44.581Z,72.10
2023-02-13T09:36:41.150Z,70.91
2023-02-13T09:37:37.748Z,71.46
2023-02-13T09:38:34.955Z,72.33
2023-02-13T09:39:31.525Z,72.43
2023-02-13T09:41:00.725Z,72.42
2023-02-13T09:41:58.698Z,70.33
2023-02-13T09:43:22.706Z,68.68
2023-02-13T09:44:34.394Z,69.63
2023-02-13T09:45:31.177Z,70.54
2023-02-13T09:46:36.450Z,72.32
2023-02-13T09:47:51.264Z,71.95
2023-02-13T09:48:51.756Z,71.25
2023-02-13T09:49:52.962Z,70.83
2023-02-13T09:50:49.745Z,70.15
2023-02-13T09:51:57.348Z,69.66
2023-02-13T09:52:58.599Z,68.79
2023-02-13T09:54:02.656Z,67.66
2023-02-13T09:54:59.315Z,66.77
2023-02-13T09:56:05.870Z,67.38
2023-02-13T09:57:25.036Z,68.31
2023-02-13T09:58:40.706Z,67.73
2023-02-13T09:59:53.516Z,67.07
2023-02-13T10:00:54.480Z,66.14
2023-02-13T10:01:53.114Z,66.80
2023-02-13T10:02:59.404Z,65.91
2023-02-13T10:03:55.997Z,67.30
2023-02-13T10:05:37.372Z,66.28
2023-02-13T10:06:50.480Z,67.41
2023-02-13T10:07:56.853Z,68.34
2023-02-13T10:09:07.689Z,68.56
2023-02-13T10:10:14.115Z,69.31
2023-02-13T10:11:36.354Z,66.86
2023-02-13T10:12:49.127Z,65.15
2023-02-13T10:14:02.882Z,68.89
2023-02-13T10:15:14.577Z,68.21
2023-02-13T10:16:22.405Z,67.48
2023-02-13T10:17:23.300Z,68.55
2023-02-13T10:18:25.180Z,69.48
2023-02-13T10:19:43.469Z,68.02
2023-02-13T10:20:53.264Z,67.94
2023-02-13T10:21:56.227Z,67.91
2023-02-13T10:23:03.190Z,66.60
2023-02-13T10:24:02.000Z,66.90
2023-02-13T10:25:01.339Z,67.46
2023-02-13T10:26:01.145Z,66.16
2023-02-13T10:27:02.278Z,66.23
2023-02-13T10:28:06.726Z,65.71
2023-02-13T10:29:28.153Z,65.02
2023-02-13T10:30:30.756Z,65.07
2023-02-13T10:31:27.470Z,66.51
2023-02-13T10:32:30.300Z,67.19
2023-02-13T10:33:34.464Z,66.49
2023-02-13T10:34:38.727Z,67.05
2023-02-13T10:35:35.377Z,66.30
2023-02-13T10:36:36.449Z,65.77
2023-02-13T10:37:33.105Z,64.36
2023-02-13T10:38:33.203Z,63.97
2023-02-13T10:39:31.359Z,65.83
2023-02-13T10:40:38.163Z,65.41
2023-02-13T10:41:57.867Z,65.97
2023-02-13T10:43:09.497Z,65.87
2023-02-13T10:44:27.242Z,65.88
2023-02-13T10:46:04.398Z,67.25
2023-02-13T10:47:10.795Z,66.14
2023-02-13T10:48:37.532Z,65.66
2023-02-13T10:49:46.627Z,65.36
2023-02-13T10:51:02.473Z,65.02
2023-02-13T10:52:04.850Z,65.71
2023-02-13T10:53:20.032Z,67.11
2023-02-13T10:54:34.737Z,65.39
2023-02-13T10:55:46.656Z,64.86
2023-02-13T10:56:47.304Z,63.03
2023-02-13T10:57:43.920Z,63.65
2023-02-13T10:58:48.557Z,65.10
2023-02-13T11:00:02.380Z,65.13
2023-02-13T11:01:07.060Z,63.60
2023-02-13T11:02:30.622Z,64.26
2023-02-13T11:03:30.063Z,63.82
2023-02-13T11:04:26.769Z,63.54
2023-02-13T11:05:41.866Z,64.63
2023-02-13T11:06:46.649Z,64.04
2023-02-13T11:07:46.910Z,63.20
2023-02-13T11:08:47.245Z,62.46
2023-02-13T11:09:48.624Z,63.20
2023-02-13T11:10:45.215Z,62.47
2023-02-13T11:11:44.027Z,62.09
2023-02-13T11:12:40.788Z,62.59
2023-02-13T11:13:37.494Z,63.95
2023-02-13T11:14:34.094Z,63.32
2023-02-13T11:15:32.936Z,63.40
2023-02-13T11:16:39.840Z,63.67
2023-02-13T11:17:41.429Z,64.33
2023-02-13T11:18:41.601Z,63.12
2023-02-13T11:19:51.782Z,63.32
2023-02-13T11:21:04.124Z,63.58
2023-02-13T11:22:11.626Z,63.47
2023-02-13T11:23:26.628Z,63.01
2023-02-13T11:24:25.924Z,63.46
2023-02-13T11:25:25.562Z,63.22
2023-02-13T11:26:27.979Z,64.38
2023-02-13T11:27:27.719Z,63.77
2023-02-13T11:28:24.872Z,62.77
2023-02-13T11:29:28.300Z,63.33
2023-02-13T11:30:38.535Z,62.32
2023-02-13T11:31:37.341Z,62.04
2023-02-13T11:32:35.395Z,62.78
2023-02-13T11:33:32.142Z,60.39
2023-02-13T11:34:31.259Z,60.62
2023-02-13T11:35:33.528Z,58.87
2023-02-13T11:36:32.890Z,59.53
2023-02-13T11:37:31.675Z,58.93
2023-02-13T11:38:28.376Z,60.72
2023-02-13T11:39:26.977Z,60.51
2023-02-13T11:40:31.845Z,59.41
2023-02-13T11:41:30.227Z,58.90
2023-02-13T11:42:33.979Z,58.82
2023-02-13T11:43:36.816Z,58.22
2023-02-13T11:44:33.801Z,57.38
2023-02-13T11:45:30.547Z,58.12
2023-02-13T11:46:30.630Z,57.98
2023-02-13T11:47:35.728Z,58.41
2023-02-13T11:48:32.560Z,57.88
2023-02-13T11:49:36.116Z,57.96
2023-02-13T11:50:37.842Z,57.38
2023-02-13T11:51:52.997Z,58.42
2023-02-13T11:53:00.295Z,56.38
2023-02-13T11:54:01.038Z,56.73
2023-02-13T11:55:23.940Z,56.16
2023-02-13T11:56:20.583Z,54.89
2023-02-13T11:57:23.374Z,55.85
2023-02-13T11:58:26.062Z,57.01
2023-02-13T11:59:24.826Z,57.33
2023-02-13T12:00:31.028Z,56.18
2023-02-13T12:01:29.265Z,56.31
2023-02-13T12:02:27.885Z,56.38
2023-02-13T12:03:26.389Z,55.21
2023-02-13T12:04:23.117Z,54.24
2023-02-13T12:05:26.222Z,54.07
2023-02-13T12:06:22.909Z,54.44
2023-02-13T12:07:23.892Z,54.36
2023-02-13T12:08:21.332Z,52.95
2023-02-13T12:09:17.896Z,52.51
2023-02-13T12:10:33.361Z,52.59
2023-02-13T12:11:52.472Z,53.08
2023-02-13T12:13:27.700Z,54.10
2023-02-13T12:14:32.740Z,54.49
2023-02-13T12:15:33.213Z,54.09
2023-02-13T12:16:40.579Z,52.70
2023-02-13T12:17:37.378Z,53.58
2023-02-13T12:18:36.637Z,52.83
2023-02-13T12:19:36.320Z,52.67
2023-02-13T12:20:44.005Z,51.95
2023-02-13T12:22:18.279Z,52.34
2023-02-13T12:23:28.387Z,52.05
2023-02-13T12:24:51.447Z,52.25
2023-02-13T12:26:02.308Z,52.03
2023-02-13T12:27:25.107Z,53.28
2023-02-13T12:28:57.151Z,53.14
2023-02-13T12:30:09.562Z,53.84
2023-02-13T12:31:21.119Z,53.46
2023-02-13T12:32:21.565Z,51.78
2023-02-13T12:33:18.199Z,53.42
2023-02-13T12:34:23.994Z,52.29
2023-02-13T12:35:35.492Z,52.32
2023-02-13T12:36:54.498Z,52.68
2023-02-13T12:38:35.520Z,51.65
2023-02-13T12:39:41.502Z,51.79
2023-02-13T12:40:51.714Z,52.32
2023-02-13T12:42:06.815Z,52.32
2023-02-13T12:43:41.462Z,51.71
2023-02-13T12:44:38.093Z,51.05
2023-02-13T12:46:03.044Z,49.72
2023-02-13T12:47:15.833Z,50.64
2023-02-13T12:48:30.783Z,50.79
2023-02-13T12:49:30.282Z,49.11
2023-02-13T12:50:55.818Z,50.62
2023-02-13T12:52:17.794Z,51.66
2023-02-13T12:53:27.490Z,50.59
2023-02-13T12:54:49.651Z,51.10
2023-02-13T12:56:00.694Z,50.42
2023-02-13T12:57:10.242Z,50.83
2023-02-13T12:58:23.329Z,51.33
2023-02-13T12:59:28.955Z,51.36
2023-02-13T13:00:33.882Z,51.09
2023-02-13T13:02:07.795Z,51.96
2023-02-13T13:03:10.369Z,51.19
2023-02-13T13:04:14.652Z,51.47
2023-02-13T13:05:43.301Z,50.37
2023-02-13T13:06:45.983Z,50.88
2023-02-13T13:07:58.995Z,50.69
2023-02-13T13:08:58.369Z,50.99
2023-02-13T13:10:16.970Z,50.09
2023-02-13T13:11:22.427Z,50.40
2023-02-13T13:12:21.853Z,51.04
2023-02-13T13:13:37.037Z,48.97
2023-02-13T13:14:52.404Z,50.53
2023-02-13T13:15:48.888Z,49.20
2023-02-13T13:17:00.288Z,47.33
2023-02-13T13:18:07.332Z,48.11
2023-02-13T13:19:27.229Z,49.12